createdAt,value
2022-11-06T00:02:20.693Z,97911.81
2022-11-06T00:04:47.584Z,97900.50
2022-11-06T00:07:14.041Z,97906.56
2022-11-06T00:09:40.544Z,97912.66
2022-11-06T00:12:07.197Z,97911.81
2022-11-06T00:14:33.697Z,97922.94
2022-11-06T00:17:00.172Z,97913.50
2022-11-06T00:19:26.678Z,97918.63
2022-11-06T00:21:53.201Z,97910.94
2022-11-06T00:24:19.697Z,97903.06
2022-11-06T00:26:51.322Z,97897.09
2022-11-06T00:29:20.651Z,97904.97
2022-11-06T00:31:49.544Z,97910.09
2022-11-06T00:34:16.084Z,97910.94
2022-11-06T00:36:42.611Z,97904.97
2022-11-06T00:39:09.248Z,97903.19
2022-11-06T00:41:35.793Z,97904.09
2022-11-06T00:44:02.870Z,97902.41
2022-11-06T00:46:29.381Z,97905.81
2022-11-06T00:48:56.082Z,97900.69
2022-11-06T00:51:27.847Z,97901.56
2022-11-06T00:53:58.946Z,97893.88
2022-11-06T00:56:25.549Z,97899.00
2022-11-06T00:58:52.160Z,97896.44
2022-11-06T01:01:24.392Z,97892.16
2022-11-06T01:04:06.959Z,97891.31
2022-11-06T01:06:35.370Z,97886.16
2022-11-06T01:09:02.044Z,97891.28
2022-11-06T01:11:59.440Z,97898.13
2022-11-06T01:14:23.169Z,97898.13
2022-11-06T01:16:49.849Z,97903.19
2022-11-06T01:19:17.445Z,97900.66
2022-11-06T01:21:46.158Z,97906.66
2022-11-06T01:24:15.470Z,97893.84
2022-11-06T01:26:58.511Z,97900.66
2022-11-06T01:29:28.525Z,97892.13
2022-11-06T01:31:55.041Z,97897.28
2022-11-06T01:34:21.641Z,97883.41
2022-11-06T01:37:00.197Z,97881.81
2022-11-06T01:39:26.682Z,97887.88
2022-11-06T01:41:53.517Z,97901.53
2022-11-06T01:44:41.766Z,97887.88
2022-11-06T01:47:26.022Z,97887.84
2022-11-06T01:50:00.357Z,97879.34
2022-11-06T01:52:27.377Z,97885.31
2022-11-06T01:54:57.277Z,97868.88
2022-11-06T01:57:23.759Z,97874.94
2022-11-06T01:59:50.734Z,97880.16
2022-11-06T02:02:17.397Z,97879.31
2022-11-06T02:04:45.220Z,97877.59
2022-11-06T02:07:12.123Z,97778.44
2022-11-06T02:09:38.679Z,97872.31
2022-11-06T02:12:05.093Z,97872.44
2022-11-06T02:14:45.561Z,97862.13
2022-11-06T02:17:27.319Z,97864.75
2022-11-06T02:20:29.353Z,97863.06
2022-11-06T02:23:10.719Z,97869.06
2022-11-06T02:25:57.379Z,97870.78
2022-11-06T02:28:26.504Z,97874.19
2022-11-06T02:30:53.159Z,97869.91
2022-11-06T02:33:25.343Z,97869.06
2022-11-06T02:36:06.510Z,97863.94
2022-11-06T02:38:43.917Z,97855.28
2022-11-06T02:41:16.371Z,97877.66
2022-11-06T02:43:44.526Z,97870.78
2022-11-06T02:46:26.216Z,97869.91
2022-11-06T02:48:56.268Z,97863.91
2022-11-06T02:51:24.224Z,97847.41
2022-11-06T02:53:50.704Z,97865.66
2022-11-06T02:56:28.281Z,97864.69
2022-11-06T02:59:03.217Z,97869.06
2022-11-06T03:01:34.503Z,97862.13
2022-11-06T03:04:05.659Z,97869.91
2022-11-06T03:06:38.851Z,97864.78
2022-11-06T03:09:08.024Z,97861.34
2022-11-06T03:11:43.846Z,97856.88
2022-11-06T03:14:17.083Z,97869.97
2022-11-06T03:17:10.950Z,97869.13
2022-11-06T03:19:45.703Z,97856.31
2022-11-06T03:22:13.317Z,97855.28
2022-11-06T03:25:05.010Z,97860.59
2022-11-06T03:28:01.646Z,97863.16
2022-11-06T03:30:28.109Z,97860.59
2022-11-06T03:32:58.803Z,97853.66
2022-11-06T03:35:35.331Z,97845.84
2022-11-06T03:38:05.654Z,97859.72
2022-11-06T03:40:32.766Z,97857.16
2022-11-06T03:43:02.171Z,97839.81
2022-11-06T03:45:28.724Z,97831.22
2022-11-06T03:47:58.733Z,97851.19
2022-11-06T03:50:37.546Z,97844.34
2022-11-06T03:53:10.246Z,97841.00
2022-11-06T03:55:40.817Z,97839.22
2022-11-06T03:58:09.749Z,97832.44
2022-11-06T04:00:36.781Z,97808.16
2022-11-06T04:03:06.428Z,97817.72
2022-11-06T04:05:36.294Z,97809.97
2022-11-06T04:08:21.542Z,97799.59
2022-11-06T04:11:09.137Z,97826.44
2022-11-06T04:13:54.107Z,97822.19
2022-11-06T04:16:20.653Z,97816.19
2022-11-06T04:18:47.117Z,97822.19
2022-11-06T04:21:40.663Z,97823.88
2022-11-06T04:24:28.924Z,97828.19
2022-11-06T04:27:08.810Z,97829.00
2022-11-06T04:30:08.358Z,97822.19
2022-11-06T04:32:41.083Z,97826.44
2022-11-06T04:35:15.512Z,97821.13
2022-11-06T04:38:09.374Z,97826.44
2022-11-06T04:41:18.507Z,97811.00
2022-11-06T04:44:09.386Z,97813.63
2022-11-06T04:46:52.342Z,97805.75
2022-11-06T04:49:18.862Z,97817.91
2022-11-06T04:51:46.471Z,97792.75
2022-11-06T04:54:13.022Z,97791.09
2022-11-06T04:56:45.556Z,97813.63
2022-11-06T04:59:14.779Z,97800.69
2022-11-06T05:01:41.379Z,97799.03
2022-11-06T05:04:08.593Z,97800.78
2022-11-06T05:06:35.078Z,97800.78
2022-11-06T05:09:01.619Z,97794.91
2022-11-06T05:11:28.132Z,97792.25
2022-11-06T05:13:54.719Z,97802.53
2022-11-06T05:16:21.281Z,97801.66
2022-11-06T05:18:47.751Z,97787.97
2022-11-06T05:21:32.790Z,97790.56
2022-11-06T05:23:59.290Z,97794.00
2022-11-06T05:26:25.753Z,97788.91
2022-11-06T05:28:52.237Z,97787.16
2022-11-06T05:31:18.709Z,97791.44
2022-11-06T05:33:45.218Z,97781.16
2022-11-06T05:36:11.755Z,97788.00
2022-11-06T05:38:38.258Z,97794.00
2022-11-06T05:41:04.867Z,97782.88
2022-11-06T05:43:31.333Z,97788.00
2022-11-06T05:45:58.370Z,97785.41
2022-11-06T05:48:24.851Z,97791.44
2022-11-06T05:50:51.396Z,97793.13
2022-11-06T05:53:18.035Z,97786.34
2022-11-06T05:55:47.597Z,97776.91
2022-11-06T05:58:14.823Z,97777.78
2022-11-06T06:00:41.660Z,97771.84
2022-11-06T06:03:09.009Z,97758.16
2022-11-06T06:05:35.579Z,97760.72
2022-11-06T06:08:02.097Z,97764.97
2022-11-06T06:10:28.590Z,97765.84
2022-11-06T06:12:55.058Z,97770.97
2022-11-06T06:15:21.537Z,97764.97
2022-11-06T06:17:48.042Z,97776.09
2022-11-06T06:20:14.598Z,97762.41
2022-11-06T06:22:41.146Z,97751.34
2022-11-06T06:25:17.446Z,97745.19
2022-11-06T06:27:48.839Z,97749.59
2022-11-06T06:30:15.700Z,97758.16
2022-11-06T06:32:42.220Z,97745.34
2022-11-06T06:35:08.907Z,97758.16
2022-11-06T06:37:35.398Z,97750.47
2022-11-06T06:40:01.933Z,97755.59
2022-11-06T06:42:31.435Z,97747.91
2022-11-06T06:44:58.179Z,97753.91
2022-11-06T06:47:24.665Z,97743.44
2022-11-06T06:49:51.134Z,97753.91
2022-11-06T06:52:17.646Z,97752.16
2022-11-06T06:54:44.150Z,97755.59
2022-11-06T06:57:10.677Z,97745.19
2022-11-06T06:59:37.139Z,97754.72
2022-11-06T07:02:03.670Z,97766.69
2022-11-06T07:04:30.279Z,97764.16
2022-11-06T07:06:56.792Z,97770.09
2022-11-06T07:09:26.008Z,97775.25
2022-11-06T07:11:52.550Z,97783.78
2022-11-06T07:14:19.098Z,97786.34
2022-11-06T07:16:48.561Z,97778.41
2022-11-06T07:19:19.136Z,97802.56
2022-11-06T07:21:45.600Z,97811.09
2022-11-06T07:24:12.179Z,97811.94
2022-11-06T07:26:38.717Z,97807.69
2022-11-06T07:29:05.256Z,97817.94
2022-11-06T07:31:31.732Z,97810.91
2022-11-06T07:33:58.204Z,97807.69
2022-11-06T07:36:24.684Z,97812.81
2022-11-06T07:38:51.235Z,97809.44
2022-11-06T07:41:17.720Z,97797.28
2022-11-06T07:43:44.337Z,97793.97
2022-11-06T07:46:11.965Z,97801.69
2022-11-06T07:48:39.508Z,97798.31
2022-11-06T07:51:07.340Z,97798.16
2022-11-06T07:53:33.832Z,97785.28
2022-11-06T07:56:00.433Z,97798.25
2022-11-06T07:58:26.958Z,97796.56
2022-11-06T08:00:55.036Z,97804.25
2022-11-06T08:03:21.713Z,97798.31
2022-11-06T08:05:48.201Z,97785.44
2022-11-06T08:08:15.139Z,97791.44
2022-11-06T08:10:43.654Z,97779.47
2022-11-06T08:13:10.898Z,97789.72
2022-11-06T08:15:38.349Z,97786.34
2022-11-06T08:18:05.757Z,97782.09
2022-11-06T08:20:32.213Z,97773.53
2022-11-06T08:23:00.165Z,97769.28
2022-11-06T08:25:27.187Z,97765.00
2022-11-06T08:28:00.808Z,97749.66
2022-11-06T08:30:28.010Z,97755.66
2022-11-06T08:32:54.694Z,97750.34
2022-11-06T08:35:21.548Z,97767.63
2022-11-06T08:37:48.055Z,97770.19
2022-11-06T08:40:14.594Z,97772.75
2022-11-06T08:42:41.154Z,97771.06
2022-11-06T08:45:08.292Z,97764.25
2022-11-06T08:47:34.819Z,97763.38
2022-11-06T08:50:01.328Z,97749.69
2022-11-06T08:52:33.735Z,97755.69
2022-11-06T08:55:00.641Z,97748.88
2022-11-06T08:57:27.388Z,97741.22
2022-11-06T08:59:53.877Z,97725.75
2022-11-06T09:02:20.431Z,97721.56
2022-11-06T09:04:47.016Z,97712.06
2022-11-06T09:07:13.591Z,97723.31
2022-11-06T09:09:40.052Z,97708.81
2022-11-06T09:12:06.926Z,97701.16
2022-11-06T09:14:34.106Z,97693.47
2022-11-06T09:17:00.604Z,97698.66
2022-11-06T09:19:27.109Z,97690.97
2022-11-06T09:21:54.881Z,97687.59
2022-11-06T09:24:43.165Z,97684.16
2022-11-06T09:27:08.318Z,97679.91
2022-11-06T09:29:34.809Z,97670.50
2022-11-06T09:32:01.294Z,97651.63
2022-11-06T09:34:27.776Z,97667.09
2022-11-06T09:36:54.257Z,97659.34
2022-11-06T09:39:20.730Z,97657.72
2022-11-06T09:41:58.774Z,97645.78
2022-11-06T09:44:31.491Z,97633.81
2022-11-06T09:46:58.001Z,97626.03
2022-11-06T09:49:52.917Z,97638.91
2022-11-06T09:52:48.519Z,97625.22
2022-11-06T09:55:17.647Z,97621.81
2022-11-06T09:57:53.114Z,97626.09
2022-11-06T10:00:19.701Z,97610.56
2022-11-06T10:02:53.023Z,97615.88
2022-11-06T10:05:32.572Z,97598.72
2022-11-06T10:08:20.060Z,97591.97
2022-11-06T10:11:15.739Z,97593.63
2022-11-06T10:14:11.522Z,97596.19
2022-11-06T10:16:50.171Z,97587.47
2022-11-06T10:19:36.672Z,97594.47
2022-11-06T10:22:11.950Z,97587.63
2022-11-06T10:24:57.130Z,97577.22
2022-11-06T10:27:27.531Z,97600.44
2022-11-06T10:30:08.559Z,97582.50
2022-11-06T10:32:59.988Z,97576.50
2022-11-06T10:35:57.901Z,97562.03
2022-11-06T10:38:29.441Z,97556.91
2022-11-06T10:40:56.126Z,97548.28
2022-11-06T10:43:52.406Z,97547.50
2022-11-06T10:46:33.997Z,97542.38
2022-11-06T10:49:25.989Z,97541.53
2022-11-06T10:52:07.782Z,97429.88
2022-11-06T10:54:53.373Z,97501.97
2022-11-06T10:57:54.186Z,97518.47
2022-11-06T11:00:20.758Z,97508.16
2022-11-06T11:02:56.083Z,97506.50
2022-11-06T11:05:23.759Z,97506.50
2022-11-06T11:07:50.529Z,97400.78
2022-11-06T11:10:23.101Z,97505.66
2022-11-06T11:12:50.443Z,97495.41
2022-11-06T11:15:21.052Z,97491.88
2022-11-06T11:18:07.355Z,97498.81
2022-11-06T11:20:35.125Z,97487.72
2022-11-06T11:23:28.338Z,97488.56
2022-11-06T11:25:56.446Z,97466.16
2022-11-06T11:28:22.890Z,97473.19
2022-11-06T11:31:08.805Z,97468.03
2022-11-06T11:33:35.321Z,97436.19
2022-11-06T11:36:02.910Z,97451.88
2022-11-06T11:38:29.476Z,97442.31
2022-11-06T11:41:09.354Z,97404.91
2022-11-06T11:43:35.869Z,97428.78
2022-11-06T11:46:08.951Z,97419.38
2022-11-06T11:48:43.867Z,97425.34
2022-11-06T11:51:24.579Z,97390.91
2022-11-06T11:53:51.802Z,97409.06
2022-11-06T11:56:31.193Z,97408.28
2022-11-06T11:59:06.323Z,97393.75
2022-11-06T12:01:38.144Z,97394.47
2022-11-06T12:04:26.831Z,97397.97
2022-11-06T12:07:03.978Z,97393.63
2022-11-06T12:09:33.331Z,97401.47
2022-11-06T12:12:00.669Z,97391.94
2022-11-06T12:14:31.309Z,97406.63
2022-11-06T12:17:16.864Z,97407.50
2022-11-06T12:19:46.889Z,97404.91
2022-11-06T12:22:17.431Z,97392.75
2022-11-06T12:25:10.953Z,97305.31
2022-11-06T12:27:38.575Z,97412.66
2022-11-06T12:30:07.405Z,97401.50
2022-11-06T12:32:58.887Z,97401.53
2022-11-06T12:35:29.233Z,97401.53
2022-11-06T12:38:11.114Z,97402.41
2022-11-06T12:41:03.582Z,97400.69
2022-11-06T12:43:59.992Z,97398.94
2022-11-06T12:46:51.058Z,97397.25
2022-11-06T12:49:57.225Z,97371.28
2022-11-06T12:52:47.214Z,97383.38
2022-11-06T12:55:22.924Z,97395.56
2022-11-06T12:57:52.422Z,97385.31
2022-11-06T13:00:20.407Z,97392.13
2022-11-06T13:03:00.281Z,97387.88
2022-11-06T13:05:33.676Z,97381.88
2022-11-06T13:08:19.050Z,97366.47
2022-11-06T13:10:51.296Z,97374.16
2022-11-06T13:13:35.928Z,97366.44
2022-11-06T13:16:11.550Z,97356.19
2022-11-06T13:18:42.983Z,97348.53
2022-11-06T13:21:20.449Z,97322.72
2022-11-06T13:23:51.352Z,97324.53
2022-11-06T13:26:32.581Z,97303.09
2022-11-06T13:29:00.462Z,97305.72
2022-11-06T13:31:39.278Z,97310.13
2022-11-06T13:34:05.831Z,97303.31
2022-11-06T13:36:32.377Z,97301.59
2022-11-06T13:39:12.809Z,97298.19
2022-11-06T13:41:39.378Z,97289.63
2022-11-06T13:44:15.890Z,97275.94
2022-11-06T13:46:56.420Z,97274.25
2022-11-06T13:49:31.691Z,97263.16
2022-11-06T13:51:59.946Z,97241.81
2022-11-06T13:55:08.418Z,97234.13
2022-11-06T13:57:37.826Z,97219.59
2022-11-06T14:00:16.454Z,97217.03
2022-11-06T14:03:20.148Z,97247.75
2022-11-06T14:06:05.910Z,97225.59
2022-11-06T14:08:39.428Z,97214.47
2022-11-06T14:11:07.530Z,97201.66
2022-11-06T14:13:34.819Z,97192.19
2022-11-06T14:16:04.170Z,97197.41
2022-11-06T14:18:30.686Z,97199.97
2022-11-06T14:21:34.933Z,97198.28
2022-11-06T14:24:28.296Z,97200.81
2022-11-06T14:26:54.814Z,97204.22
2022-11-06T14:29:27.511Z,97202.53
2022-11-06T14:32:10.360Z,97204.22
2022-11-06T14:34:37.995Z,97201.66
2022-11-06T14:37:19.673Z,97201.66
2022-11-06T14:39:52.501Z,97202.53
2022-11-06T14:42:28.101Z,97199.88
2022-11-06T14:45:08.343Z,97215.38
2022-11-06T14:47:35.833Z,97206.81
2022-11-06T14:50:24.870Z,97188.66
2022-11-06T14:52:58.706Z,97188.88
2022-11-06T14:55:45.806Z,97184.66
2022-11-06T14:58:25.649Z,97206.84
2022-11-06T15:00:56.670Z,97174.22
2022-11-06T15:03:44.336Z,97194.88
2022-11-06T15:06:16.831Z,97188.03
2022-11-06T15:08:46.282Z,97182.91
2022-11-06T15:11:31.991Z,97189.75
2022-11-06T15:14:06.162Z,97181.22
2022-11-06T15:16:40.825Z,97182.06
2022-11-06T15:19:11.387Z,97183.78
2022-11-06T15:22:15.025Z,97172.66
2022-11-06T15:24:48.154Z,97150.16
2022-11-06T15:27:22.343Z,97182.94
2022-11-06T15:29:52.656Z,97199.97
2022-11-06T15:32:22.223Z,97183.63
2022-11-06T15:34:54.150Z,97188.84
2022-11-06T15:37:26.161Z,97196.56
2022-11-06T15:39:59.127Z,97192.28
2022-11-06T15:42:34.676Z,97188.03
2022-11-06T15:45:16.636Z,97189.75
2022-11-06T15:48:02.297Z,97185.53
2022-11-06T15:50:32.508Z,97180.41
2022-11-06T15:53:14.678Z,97175.25
2022-11-06T15:56:07.170Z,97175.16
2022-11-06T15:58:35.197Z,97176.94
2022-11-06T16:01:02.369Z,97176.91
2022-11-06T16:03:31.260Z,97178.63
2022-11-06T16:06:00.476Z,97172.53
2022-11-06T16:08:28.193Z,97194.00
2022-11-06T16:10:54.756Z,97177.69
2022-11-06T16:13:22.447Z,97195.72
2022-11-06T16:16:01.572Z,97193.16
2022-11-06T16:18:35.940Z,97193.94
2022-11-06T16:21:16.473Z,97202.56
2022-11-06T16:23:56.034Z,97196.56
2022-11-06T16:26:36.298Z,97195.72
2022-11-06T16:29:29.461Z,97190.50
2022-11-06T16:32:06.702Z,97204.25
2022-11-06T16:34:37.524Z,97192.31
2022-11-06T16:37:05.901Z,97185.50
2022-11-06T16:39:53.903Z,97169.09
2022-11-06T16:42:30.874Z,97181.22
2022-11-06T16:45:20.257Z,97185.53
2022-11-06T16:48:09.984Z,97186.38
2022-11-06T16:50:50.319Z,97176.81
2022-11-06T16:53:20.554Z,97182.09
2022-11-06T16:55:56.974Z,97182.09
2022-11-06T16:58:23.547Z,97180.13
2022-11-06T17:01:05.817Z,97184.59
2022-11-06T17:03:38.735Z,97199.13
2022-11-06T17:06:05.417Z,97187.06
2022-11-06T17:08:36.138Z,97193.97
2022-11-06T17:11:20.567Z,97198.31
2022-11-06T17:13:48.456Z,97204.28
2022-11-06T17:16:16.961Z,97190.47
2022-11-06T17:18:43.456Z,97202.59
2022-11-06T17:21:23.147Z,97187.19
2022-11-06T17:23:50.216Z,97186.38
2022-11-06T17:26:29.585Z,97182.94
2022-11-06T17:28:56.662Z,97194.91
2022-11-06T17:31:23.917Z,97205.16
2022-11-06T17:33:50.700Z,97201.72
2022-11-06T17:36:26.528Z,97197.47
2022-11-06T17:38:54.057Z,97190.66
2022-11-06T17:41:32.697Z,97192.34
2022-11-06T17:44:03.622Z,97204.31
2022-11-06T17:46:37.603Z,97197.44
2022-11-06T17:49:04.494Z,97211.16
2022-11-06T17:51:49.754Z,97209.41
2022-11-06T17:54:17.153Z,97203.47
2022-11-06T17:56:44.802Z,97191.50
2022-11-06T17:59:11.649Z,97198.34
2022-11-06T18:01:38.274Z,97191.50
2022-11-06T18:04:05.258Z,97193.22
2022-11-06T18:06:31.796Z,97203.47
2022-11-06T18:08:59.110Z,97201.72
2022-11-06T18:11:25.883Z,97202.59
2022-11-06T18:13:52.634Z,97195.78
2022-11-06T18:16:20.951Z,97206.78
2022-11-06T18:18:47.576Z,97213.69
2022-11-06T18:21:14.122Z,97209.34
2022-11-06T18:23:40.610Z,97222.22
2022-11-06T18:26:07.931Z,97215.38
2022-11-06T18:28:34.494Z,97220.53
2022-11-06T18:31:01.072Z,97211.97
2022-11-06T18:33:30.349Z,97218.84
2022-11-06T18:36:01.193Z,97204.16
2022-11-06T18:38:27.871Z,97206.00
2022-11-06T18:40:54.363Z,97202.47
2022-11-06T18:43:20.852Z,97211.16
2022-11-06T18:45:47.349Z,97206.00
2022-11-06T18:48:18.331Z,97208.53
2022-11-06T18:50:47.350Z,97208.56
2022-11-06T18:53:15.179Z,97208.56
2022-11-06T18:55:45.682Z,97209.41
2022-11-06T18:58:12.629Z,97206.03
2022-11-06T19:00:39.560Z,97210.25
2022-11-06T19:03:06.183Z,97189.66
2022-11-06T19:05:34.297Z,97199.16
2022-11-06T19:08:01.634Z,97203.44
2022-11-06T19:10:29.470Z,97202.56
2022-11-06T19:12:59.240Z,97175.81
2022-11-06T19:15:26.346Z,97206.81
2022-11-06T19:17:54.520Z,97205.09
2022-11-06T19:20:21.794Z,97214.50
2022-11-06T19:22:52.075Z,97205.97
2022-11-06T19:25:18.980Z,97206.03
2022-11-06T19:27:45.843Z,97207.69
2022-11-06T19:30:12.682Z,97221.38
2022-11-06T19:32:39.196Z,97223.03
2022-11-06T19:35:05.900Z,97224.78
2022-11-06T19:37:32.522Z,97220.53
2022-11-06T19:40:04.381Z,97221.38
2022-11-06T19:42:32.327Z,97216.25
2022-11-06T19:44:58.885Z,97235.00
2022-11-06T19:47:25.779Z,97236.72
2022-11-06T19:49:52.360Z,97229.84
2022-11-06T19:52:42.261Z,97235.88
2022-11-06T19:55:25.732Z,97236.72
2022-11-06T19:57:53.410Z,97236.72
2022-11-06T20:00:19.927Z,97239.28
2022-11-06T20:02:49.443Z,97229.88
2022-11-06T20:05:16.091Z,97224.72
2022-11-06T20:07:42.655Z,97240.13
2022-11-06T20:10:09.261Z,97246.13
2022-11-06T20:12:35.798Z,97257.22
2022-11-06T20:15:02.269Z,97263.19
2022-11-06T20:17:28.830Z,97270.06
2022-11-06T20:19:55.307Z,97273.41
2022-11-06T20:22:21.805Z,97274.28
2022-11-06T20:24:48.334Z,97275.09
2022-11-06T20:27:14.841Z,97271.75
2022-11-06T20:29:41.317Z,97276.81
2022-11-06T20:32:07.817Z,97275.13
2022-11-06T20:34:34.386Z,97275.97
2022-11-06T20:37:00.941Z,97281.97
2022-11-06T20:39:28.265Z,97286.19
2022-11-06T20:41:54.861Z,97270.03
2022-11-06T20:44:21.368Z,97271.66
2022-11-06T20:46:48.111Z,97271.66
2022-11-06T20:49:14.842Z,97256.31
2022-11-06T20:52:11.631Z,97261.41
2022-11-06T20:54:27.916Z,97259.66
2022-11-06T20:56:54.463Z,97268.31
2022-11-06T20:59:21.073Z,97274.25
2022-11-06T21:01:48.112Z,97263.88
2022-11-06T21:04:14.734Z,97276.75
2022-11-06T21:06:41.481Z,97278.53
2022-11-06T21:09:08.139Z,97275.97
2022-11-06T21:11:34.722Z,97291.34
2022-11-06T21:14:01.210Z,97297.31
2022-11-06T21:16:29.634Z,97299.03
2022-11-06T21:18:56.219Z,97301.56
2022-11-06T21:21:24.416Z,97307.59
2022-11-06T21:23:51.045Z,97299.88
2022-11-06T21:26:25.171Z,97290.44
2022-11-06T21:28:51.976Z,97305.88
2022-11-06T21:31:20.255Z,97300.75
2022-11-06T21:33:48.484Z,97305.88
2022-11-06T21:36:22.751Z,97305.88
2022-11-06T21:38:49.422Z,97310.13
2022-11-06T21:41:17.859Z,97310.13
2022-11-06T21:43:44.483Z,97321.22
2022-11-06T21:46:12.398Z,97325.47
2022-11-06T21:48:46.290Z,97326.28
2022-11-06T21:51:30.291Z,97338.28
2022-11-06T21:54:15.372Z,97339.16
2022-11-06T21:56:42.544Z,97338.28
2022-11-06T21:59:11.134Z,97336.59
2022-11-06T22:01:37.968Z,97347.66
2022-11-06T22:04:04.957Z,97358.75
2022-11-06T22:06:31.545Z,97363.88
2022-11-06T22:09:00.015Z,97365.56
2022-11-06T22:11:37.174Z,97370.69
2022-11-06T22:14:08.366Z,97376.69
2022-11-06T22:16:36.741Z,97374.06
2022-11-06T22:19:03.840Z,97380.94
2022-11-06T22:21:30.877Z,97367.94
2022-11-06T22:23:57.453Z,97365.53
2022-11-06T22:26:25.478Z,97366.44
2022-11-06T22:28:56.105Z,97366.41
2022-11-06T22:31:22.897Z,97371.56
2022-11-06T22:33:53.729Z,97369.88
2022-11-06T22:36:20.718Z,97370.69
2022-11-06T22:38:47.376Z,97363.88
2022-11-06T22:41:18.011Z,97360.41
2022-11-06T22:43:44.756Z,97369.84
2022-11-06T22:46:16.467Z,97361.31
2022-11-06T22:48:43.368Z,97361.31
2022-11-06T22:51:11.760Z,97356.13
2022-11-06T22:53:38.261Z,97363.88
2022-11-06T22:56:05.323Z,97357.88
2022-11-06T22:58:31.922Z,97350.22
2022-11-06T23:00:58.559Z,97355.31
2022-11-06T23:03:25.835Z,97366.44
2022-11-06T23:05:52.360Z,97373.28
2022-11-06T23:08:18.935Z,97377.53
2022-11-06T23:10:45.575Z,97370.66
2022-11-06T23:13:12.340Z,97363.03
2022-11-06T23:15:39.105Z,97369.03
2022-11-06T23:18:05.895Z,97356.19
2022-11-06T23:20:33.246Z,97355.22
2022-11-06T23:23:03.323Z,97350.22
2022-11-06T23:25:29.875Z,97371.56
2022-11-06T23:27:56.528Z,97361.31
2022-11-06T23:30:23.058Z,97363.88
2022-11-06T23:32:49.552Z,97271.19
2022-11-06T23:35:17.134Z,97369.88
2022-11-06T23:37:43.978Z,97363.81
2022-11-06T23:40:11.075Z,97365.56
2022-11-06T23:42:37.608Z,97364.69
2022-11-06T23:45:23.099Z,97375.81
2022-11-06T23:47:50.027Z,97368.94
2022-11-06T23:50:16.735Z,97366.44
2022-11-06T23:52:43.717Z,97365.50
2022-11-06T23:55:10.374Z,97378.38
2022-11-06T23:57:36.919Z,97375.84
